Nebraska City, NE

7:45 AM CST on February 08, 2016 (GMT -0600)
Nebraska City Municipal

Weather History for KAFK - December, 2013

Change the Weather History Date:

Wednesday, December 25, 2013

  Actual Average (KOMA) Record (KOMA)
Temperature  
Mean Temperature 29 °F 24 °F  
Max Temperature 41 °F 33 °F 57 °F (1946)
Min Temperature 17 °F 15 °F -17 °F (1983)
Degree Days  
Heating Degree Days 36 41  
Month to date heating degree days 962  
Since 1 July heating degree days 2232  
Cooling Degree Days 0 0  
Month to date cooling degree days 0  
Year to date cooling degree days 1113  
Moisture  
Dew Point 23 °F    
Average Humidity 80    
Maximum Humidity 100    
Minimum Humidity 55    
Precipitation  
Precipitation 0.00 in 0.03 in 1.12 in (1941)
Month to date precipitation 0.88  
Year to date precipitation 30.46  
Snow  
Snow 0.00 in 0.20 in - ()
Month to date snowfall 5.0  
Since 1 July snowfall 7.8  
Snow Depth -    
Sea Level Pressure  
Sea Level Pressure 30.26 in    
Wind  
Wind Speed 10 mph (WNW)    
Max Wind Speed 21 mph    
Max Gust Speed 28 mph    
Visibility 9 miles    
Events      
T = Trace of Precipitation, MM = Missing Value Source: NWS Daily Summary

Daily Weather History Graph

Daily Weather History Graph

Search for Another Location

Airport or City:

Trip Planner

Search our weather history database for the weather conditions in past years. The results will help you decide how hot, cold, wet, or windy it might be!

Date:

Astronomy

Dec. 25, 2013 Rise Set
Actual Time 7:45 AM CST 5:02 PM CST
Civil Twilight 7:14 AM CST 5:32 PM CST
Nautical Twilight 6:40 AM CST 6:07 PM CST
Astronomical Twilight 6:06 AM CST 6:40 PM CST
Moon 12:12 AM CST (12/25) 12:07 PM CST (12/25)
Length of Visible Light 10h 18m
Length of Day
9h 16m
Waning Gibbous, 48% of the Moon is Illuminated
Dec 25
Waning Gibbous
Jan 1
New
Jan 7
First Quarter
Jan 15
Full
Jan 23
Last Quarter

Hourly Weather History & Observations

Time (CST) Temp. Windchill Dew Point Humidity Pressure Visibility Wind Dir Wind Speed Gust Speed Precip Events Conditions
12:15 AM 27.1 °F 18.9 °F 27.1 °F 100% 30.21 in 3.0 mi West 8.1 mph - N/A   Overcast
12:35 AM 27.7 °F 17.6 °F 27.5 °F 99% 30.21 in 5.0 mi NW 11.5 mph 17.3 mph N/A   Overcast
12:55 AM 27.5 °F 18.6 °F 26.4 °F 96% 30.21 in 7.0 mi NW 9.2 mph - N/A   Overcast
1:15 AM 27.5 °F 15.9 °F 25.7 °F 93% 30.21 in 10.0 mi NNW 15.0 mph - N/A   Overcast
1:35 AM 27.3 °F 17.7 °F 25.2 °F 92% 30.21 in 10.0 mi NNW 10.4 mph - N/A   Overcast
1:55 AM 26.8 °F 14.9 °F 24.1 °F 90% 30.22 in 10.0 mi NNW 15.0 mph 19.6 mph N/A   Overcast
2:15 AM 26.4 °F 15.0 °F 23.2 °F 88% 30.23 in 10.0 mi NNW 13.8 mph 17.3 mph N/A   Overcast
2:35 AM 25.7 °F 15.7 °F 21.7 °F 85% 30.23 in 10.0 mi NW 10.4 mph - N/A   Overcast
2:55 AM 24.4 °F 16.5 °F 20.3 °F 84% 30.23 in 10.0 mi NW 6.9 mph - N/A   Overcast
3:15 AM 22.8 °F 14.5 °F 19.2 °F 86% 30.25 in 10.0 mi NW 6.9 mph - N/A   Overcast
3:35 AM 20.7 °F 11.9 °F 17.2 °F 87% 30.25 in 10.0 mi NW 6.9 mph - N/A   Scattered Clouds
3:55 AM 20.8 °F 9.0 °F 17.8 °F 88% 30.24 in 10.0 mi NW 11.5 mph - N/A   Mostly Cloudy
4:15 AM 22.1 °F 13.7 °F 19.4 °F 89% 30.24 in 10.0 mi NW 6.9 mph - N/A   Overcast
4:35 AM 22.6 °F 13.4 °F 20.1 °F 90% 30.24 in 7.0 mi NNW 8.1 mph - N/A   Overcast
4:55 AM 23.0 °F 13.9 °F 20.8 °F 91% 30.26 in 7.0 mi NW 8.1 mph - N/A   Overcast
5:15 AM 23.7 °F 14.7 °F 21.2 °F 90% 30.26 in 7.0 mi NNW 8.1 mph - N/A   Overcast
5:35 AM 23.7 °F 17.8 °F 21.6 °F 91% 30.26 in 7.0 mi NW 4.6 mph - N/A   Overcast
5:55 AM 23.7 °F 17.8 °F 21.7 °F 92% 30.25 in 7.0 mi NW 4.6 mph - N/A   Overcast
6:15 AM 24.1 °F 19.7 °F 22.8 °F 95% 30.26 in 7.0 mi NW 3.5 mph - N/A   Overcast
6:35 AM 23.7 °F 19.3 °F 22.6 °F 96% 30.24 in 7.0 mi West 3.5 mph - N/A   Overcast
6:55 AM 22.8 °F - 22.6 °F 99% 30.24 in 7.0 mi Calm Calm - N/A   Scattered Clouds
7:15 AM 20.7 °F 15.8 °F 20.7 °F 100% 30.24 in 5.0 mi SW 3.5 mph - N/A   Clear
7:35 AM 17.8 °F 8.5 °F 17.8 °F 100% 30.24 in 4.0 mi SSW 6.9 mph - N/A   Scattered Clouds
7:55 AM 19.4 °F 8.6 °F 19.4 °F 100% 30.24 in 4.0 mi SW 9.2 mph - N/A   Clear
8:15 AM 21.2 °F 8.3 °F 21.2 °F 100% 30.23 in 5.0 mi SW 13.8 mph - N/A   Clear
8:35 AM 21.6 °F 9.3 °F 21.6 °F 100% 30.24 in 7.0 mi WSW 12.7 mph - N/A   Clear
8:55 AM 21.7 °F 10.2 °F 21.7 °F 100% 30.24 in 7.0 mi SW 11.5 mph - N/A   Clear
9:15 AM 22.5 °F 8.9 °F 22.1 °F 99% 30.24 in 10.0 mi WSW 16.1 mph - N/A   Clear
9:35 AM 23.0 °F 10.1 °F 21.7 °F 95% 30.24 in 10.0 mi WSW 15.0 mph - N/A   Clear
9:55 AM 23.9 °F 11.7 °F 21.6 °F 91% 30.25 in 10.0 mi WSW 13.8 mph - N/A   Clear
10:15 AM 25.5 °F 13.3 °F 21.7 °F 86% 30.25 in 10.0 mi WSW 15.0 mph - N/A   Clear
10:35 AM 27.0 °F 15.6 °F 22.1 °F 82% 30.25 in 10.0 mi WSW 13.8 mph - N/A   Clear
10:55 AM 29.1 °F 18.9 °F 23.0 °F 78% 30.25 in 10.0 mi WSW 12.7 mph - N/A   Clear
11:15 AM 31.6 °F 23.1 °F 24.3 °F 74% 30.25 in 10.0 mi West 10.4 mph - N/A   Clear
11:35 AM 33.1 °F 24.9 °F 25.3 °F 73% 30.25 in 10.0 mi West 10.4 mph - N/A   Clear
11:55 AM 35.1 °F 27.4 °F 26.4 °F 71% 30.24 in 10.0 mi West 10.4 mph - N/A   Clear
12:15 PM 36.9 °F 29.6 °F 27.1 °F 68% 30.24 in 10.0 mi West 10.4 mph - N/A   Clear
12:35 PM 37.9 °F 30.0 °F 28.2 °F 68% 30.24 in 10.0 mi NW 12.7 mph 17.3 mph N/A   Clear
12:55 PM 39.7 °F 32.3 °F 28.6 °F 64% 30.23 in 10.0 mi NW 12.7 mph - N/A   Clear
1:15 PM 40.1 °F 32.4 °F 29.1 °F 65% 30.23 in 10.0 mi NW 13.8 mph 18.4 mph N/A   Clear
1:35 PM 40.6 °F 31.2 °F 26.6 °F 57% 30.22 in 10.0 mi NNW 20.7 mph 27.6 mph N/A   Clear
1:55 PM 41.0 °F 33.5 °F 26.4 °F 56% 30.23 in 10.0 mi NNW 13.8 mph - N/A   Clear
2:15 PM 41.2 °F 33.0 °F 26.4 °F 56% 30.23 in 10.0 mi NNW 16.1 mph 23.0 mph N/A   Scattered Clouds
2:35 PM 41.0 °F 33.5 °F 26.1 °F 55% 30.23 in 10.0 mi NNW 13.8 mph 24.2 mph N/A   Scattered Clouds
2:55 PM 41.0 °F 33.5 °F 26.4 °F 56% 30.24 in 10.0 mi NNW 13.8 mph - N/A   Mostly Cloudy
3:15 PM 39.6 °F 32.1 °F 25.7 °F 58% 30.25 in 10.0 mi NW 12.7 mph - N/A   Mostly Cloudy
3:35 PM 39.4 °F 32.3 °F 26.2 °F 59% 30.26 in 10.0 mi NNW 11.5 mph - N/A   Mostly Cloudy
3:55 PM 39.6 °F 32.5 °F 26.8 °F 60% 30.26 in 10.0 mi NW 11.5 mph - N/A   Mostly Cloudy
4:15 PM 39.2 °F 32.0 °F 25.9 °F 59% 30.26 in 10.0 mi NW 11.5 mph - N/A   Scattered Clouds
4:35 PM 38.1 °F 31.2 °F 25.9 °F 61% 30.27 in 10.0 mi NNW 10.4 mph - N/A   Clear
4:55 PM 37.8 °F 29.8 °F 25.7 °F 62% 30.27 in 10.0 mi NNW 12.7 mph - N/A   Scattered Clouds
5:15 PM 37.4 °F 30.3 °F 26.4 °F 65% 30.28 in 10.0 mi NW 10.4 mph - N/A   Mostly Cloudy
5:35 PM 37.0 °F 30.4 °F 26.6 °F 66% 30.28 in 10.0 mi NW 9.2 mph - N/A   Overcast
5:55 PM 35.6 °F 28.6 °F 25.9 °F 68% 30.28 in 10.0 mi NW 9.2 mph - N/A   Scattered Clouds
6:15 PM 33.8 °F 27.0 °F 25.7 °F 72% 30.29 in 10.0 mi NW 8.1 mph - N/A   Clear
6:35 PM 34.3 °F 26.5 °F 24.8 °F 68% 30.29 in 10.0 mi NNW 10.4 mph - N/A   Clear
6:55 PM 33.1 °F 26.9 °F 24.6 °F 71% 30.30 in 10.0 mi NNW 6.9 mph - N/A   Clear
7:15 PM 31.8 °F 26.2 °F 23.9 °F 73% 30.31 in 10.0 mi NNW 5.8 mph - N/A   Clear
7:35 PM 31.1 °F 25.4 °F 23.7 °F 74% 30.31 in 10.0 mi NNW 5.8 mph - N/A   Clear
7:55 PM 31.1 °F 25.4 °F 23.5 °F 74% 30.31 in 10.0 mi NNW 5.8 mph - N/A   Clear
8:15 PM 30.2 °F 25.4 °F 23.0 °F 75% 30.32 in 10.0 mi NW 4.6 mph - N/A   Clear
8:35 PM 30.0 °F 24.1 °F 22.8 °F 75% 30.31 in 10.0 mi NW 5.8 mph - N/A   Clear
8:55 PM 30.0 °F 24.1 °F 22.6 °F 74% 30.31 in 10.0 mi NW 5.8 mph - N/A   Clear
9:15 PM 30.2 °F 25.4 °F 22.8 °F 74% 30.31 in 10.0 mi NW 4.6 mph - N/A   Clear
9:35 PM 28.9 °F 23.9 °F 21.9 °F 75% 30.30 in 10.0 mi West 4.6 mph - N/A   Clear
9:55 PM 26.6 °F 21.2 °F 21.0 °F 79% 30.29 in 10.0 mi West 4.6 mph - N/A   Clear
10:15 PM 25.5 °F 18.7 °F 20.5 °F 81% 30.29 in 10.0 mi SW 5.8 mph - N/A   Clear
10:35 PM 23.2 °F 13.3 °F 19.4 °F 85% 30.29 in 10.0 mi SW 9.2 mph - N/A   Clear
10:55 PM 23.4 °F 13.5 °F 20.5 °F 89% 30.28 in 10.0 mi SW 9.2 mph - N/A   Clear
11:15 PM 23.5 °F 13.7 °F 20.3 °F 87% 30.28 in 10.0 mi SW 9.2 mph - N/A   Clear
11:35 PM 24.8 °F 14.6 °F 20.8 °F 85% 30.28 in 10.0 mi SW 10.4 mph - N/A   Clear
11:55 PM 25.3 °F 16.0 °F 21.0 °F 84% 30.27 in 10.0 mi SW 9.2 mph - N/A   Clear